createdAt,value
2018-11-29T00:01:44.586Z,4.40
2018-11-29T00:04:18.875Z,4.43
2018-11-29T00:06:53.137Z,4.50
2018-11-29T00:09:27.216Z,4.55
2018-11-29T00:12:01.881Z,4.46
2018-11-29T00:14:36.890Z,4.55
2018-11-29T00:17:10.836Z,4.46
2018-11-29T00:19:44.774Z,4.47
2018-11-29T00:22:18.679Z,4.48
2018-11-29T00:24:52.928Z,4.59
2018-11-29T00:27:26.905Z,4.70
2018-11-29T00:30:00.907Z,4.64
2018-11-29T00:32:34.829Z,4.70
2018-11-29T00:35:11.203Z,4.57
2018-11-29T00:37:45.202Z,4.69
2018-11-29T00:40:22.143Z,4.70
2018-11-29T00:42:56.070Z,4.79
2018-11-29T00:45:30.330Z,4.68
2018-11-29T00:48:04.347Z,4.61
2018-11-29T00:50:38.272Z,4.76
2018-11-29T00:53:12.188Z,4.60
2018-11-29T00:55:46.210Z,4.74
2018-11-29T00:58:20.135Z,4.72
2018-11-29T01:00:54.080Z,4.75
2018-11-29T01:03:28.026Z,4.79
2018-11-29T01:06:01.981Z,4.91
2018-11-29T01:08:35.881Z,4.81
2018-11-29T01:11:09.942Z,4.70
2018-11-29T01:13:43.885Z,4.84
2018-11-29T01:16:17.927Z,4.71
2018-11-29T01:18:51.847Z,4.86
2018-11-29T01:21:25.919Z,4.79
2018-11-29T01:23:59.835Z,4.84
2018-11-29T01:26:33.785Z,4.84
2018-11-29T01:29:07.715Z,4.88
2018-11-29T01:31:41.764Z,4.81
2018-11-29T01:34:15.749Z,4.81
2018-11-29T01:36:49.725Z,4.91
2018-11-29T01:39:23.631Z,4.97
2018-11-29T01:41:57.577Z,4.86
2018-11-29T01:44:31.474Z,4.92
2018-11-29T01:47:05.435Z,4.96
2018-11-29T01:49:39.389Z,4.84
2018-11-29T01:52:13.382Z,4.89
2018-11-29T01:54:47.324Z,5.02
2018-11-29T01:57:21.369Z,5.02
2018-11-29T01:59:55.322Z,5.03
2018-11-29T02:02:29.351Z,5.05
2018-11-29T02:05:04.282Z,4.99
2018-11-29T02:07:38.269Z,4.85
2018-11-29T02:10:18.418Z,4.96
2018-11-29T02:12:52.492Z,4.96
2018-11-29T02:15:26.451Z,4.98
2018-11-29T02:18:00.431Z,5.07
2018-11-29T02:20:34.408Z,5.12
2018-11-29T02:23:08.381Z,5.04
2018-11-29T02:25:42.331Z,4.94
2018-11-29T02:28:16.460Z,5.01
2018-11-29T02:30:50.373Z,5.11
2018-11-29T02:33:24.439Z,5.03
2018-11-29T02:35:58.374Z,5.02
2018-11-29T02:38:32.400Z,5.08
2018-11-29T02:41:06.993Z,5.14
2018-11-29T02:43:42.333Z,5.21
2018-11-29T02:46:16.167Z,5.20
2018-11-29T02:48:50.075Z,5.24
2018-11-29T02:51:23.965Z,5.25
2018-11-29T02:53:57.846Z,5.34
2018-11-29T02:56:31.684Z,5.20
2018-11-29T02:59:05.620Z,5.33
2018-11-29T03:01:39.450Z,5.28
2018-11-29T03:04:13.315Z,5.37
2018-11-29T03:06:47.158Z,5.31
2018-11-29T03:09:21.125Z,5.23
2018-11-29T03:11:54.958Z,5.30
2018-11-29T03:14:28.968Z,5.35
2018-11-29T03:17:02.774Z,5.36
2018-11-29T03:19:36.712Z,5.32
2018-11-29T03:22:10.541Z,5.34
2018-11-29T03:24:44.444Z,5.40
2018-11-29T03:27:18.287Z,5.34
2018-11-29T03:29:52.183Z,5.29
2018-11-29T03:32:26.090Z,5.29
2018-11-29T03:34:59.975Z,5.29
2018-11-29T03:37:33.810Z,5.18
2018-11-29T03:40:10.617Z,5.19
2018-11-29T03:42:44.873Z,5.22
2018-11-29T03:45:18.748Z,5.26
2018-11-29T03:47:52.556Z,5.36
2018-11-29T03:50:26.418Z,5.33
2018-11-29T03:53:00.259Z,5.41
2018-11-29T03:55:34.116Z,5.48
2018-11-29T03:58:07.942Z,5.37
2018-11-29T04:00:41.995Z,5.42
2018-11-29T04:03:15.847Z,5.28
2018-11-29T04:05:49.705Z,5.49
2018-11-29T04:08:23.544Z,5.47
2018-11-29T04:10:57.420Z,5.56
2018-11-29T04:13:31.316Z,5.45
2018-11-29T04:16:05.317Z,5.62
2018-11-29T04:18:39.159Z,5.65
2018-11-29T04:21:13.096Z,5.54
2018-11-29T04:23:46.929Z,5.62
2018-11-29T04:26:20.782Z,5.66
2018-11-29T04:28:54.591Z,5.71
2018-11-29T04:31:28.541Z,5.68
2018-11-29T04:34:02.368Z,5.73
2018-11-29T04:36:36.282Z,5.64
2018-11-29T04:39:10.097Z,5.59
2018-11-29T04:41:43.947Z,5.66
2018-11-29T04:44:17.776Z,5.73
2018-11-29T04:46:52.965Z,5.71
2018-11-29T04:49:26.774Z,5.77
2018-11-29T04:52:00.668Z,5.71
2018-11-29T04:54:34.484Z,5.85
2018-11-29T04:57:08.349Z,5.94
2018-11-29T04:59:42.182Z,5.99
2018-11-29T05:02:16.160Z,6.06
2018-11-29T05:04:49.970Z,6.04
2018-11-29T05:07:23.997Z,5.97
2018-11-29T05:09:57.823Z,6.01
2018-11-29T05:12:31.780Z,5.91
2018-11-29T05:15:07.059Z,5.92
2018-11-29T05:17:40.945Z,5.90
2018-11-29T05:20:14.790Z,5.92
2018-11-29T05:22:48.641Z,5.93
2018-11-29T05:25:22.460Z,5.88
2018-11-29T05:27:56.384Z,6.00
2018-11-29T05:30:30.229Z,5.93
2018-11-29T05:33:04.587Z,5.97
2018-11-29T05:35:38.439Z,5.93
2018-11-29T05:38:12.496Z,5.88
2018-11-29T05:40:46.302Z,5.95
2018-11-29T05:43:20.266Z,5.90
2018-11-29T05:45:54.100Z,6.00
2018-11-29T05:48:27.971Z,5.91
2018-11-29T05:51:01.796Z,5.90
2018-11-29T05:53:35.680Z,6.00
2018-11-29T05:56:09.554Z,6.04
2018-11-29T05:58:43.455Z,6.16
2018-11-29T06:01:29.611Z,6.08
2018-11-29T06:04:03.681Z,6.05
2018-11-29T06:06:37.510Z,6.04
2018-11-29T06:09:11.521Z,6.17
2018-11-29T06:11:45.416Z,6.11
2018-11-29T06:14:19.598Z,6.14
2018-11-29T06:16:53.415Z,6.26
2018-11-29T06:19:27.304Z,6.17
2018-11-29T06:22:01.114Z,6.31
2018-11-29T06:24:35.074Z,6.28
2018-11-29T06:27:08.919Z,6.33
2018-11-29T06:29:42.820Z,6.33
2018-11-29T06:32:16.658Z,6.38
2018-11-29T06:34:50.658Z,6.40
2018-11-29T06:37:24.473Z,6.48
2018-11-29T06:39:58.323Z,6.40
2018-11-29T06:42:32.133Z,6.34
2018-11-29T06:45:08.988Z,6.51
2018-11-29T06:47:42.822Z,6.53
2018-11-29T06:50:16.828Z,6.52
2018-11-29T06:52:51.597Z,6.41
2018-11-29T06:55:25.791Z,6.33
2018-11-29T06:57:59.586Z,6.41
2018-11-29T07:00:33.432Z,6.53
2018-11-29T07:03:07.496Z,6.43
2018-11-29T07:05:41.406Z,6.58
2018-11-29T07:08:15.225Z,6.53
2018-11-29T07:10:49.118Z,6.53
2018-11-29T07:13:22.934Z,6.47
2018-11-29T07:15:56.827Z,6.54
2018-11-29T07:18:30.749Z,6.42
2018-11-29T07:21:15.710Z,6.53
2018-11-29T07:26:18.538Z,6.59
2018-11-29T07:28:52.403Z,6.59
2018-11-29T07:31:26.396Z,6.60
2018-11-29T07:34:00.248Z,6.65
2018-11-29T07:36:34.238Z,6.59
2018-11-29T07:39:10.831Z,6.40
2018-11-29T07:41:44.760Z,6.49
2018-11-29T07:44:18.713Z,6.53
2018-11-29T07:46:52.608Z,6.52
2018-11-29T07:49:26.487Z,6.36
2018-11-29T07:52:00.489Z,6.47
2018-11-29T07:54:34.342Z,6.42
2018-11-29T07:57:08.407Z,6.49
2018-11-29T07:59:42.333Z,6.55
2018-11-29T08:02:16.222Z,6.59
2018-11-29T08:04:50.101Z,6.68
2018-11-29T08:07:23.968Z,6.73
2018-11-29T08:09:57.833Z,6.69
2018-11-29T08:12:31.776Z,6.78
2018-11-29T08:15:06.636Z,6.73
2018-11-29T08:17:40.566Z,6.73
2018-11-29T08:20:16.571Z,6.80
2018-11-29T08:22:50.491Z,6.80
2018-11-29T08:25:24.393Z,6.86
2018-11-29T08:27:58.295Z,6.80
2018-11-29T08:30:32.183Z,6.87
2018-11-29T08:33:06.186Z,6.93
2018-11-29T08:35:40.018Z,6.97
2018-11-29T08:38:13.888Z,6.94
2018-11-29T08:40:47.768Z,7.02
2018-11-29T08:43:21.743Z,7.11
2018-11-29T08:45:55.605Z,7.06
2018-11-29T08:48:29.561Z,7.12
2018-11-29T08:51:03.431Z,7.14
2018-11-29T08:53:37.314Z,7.25
2018-11-29T08:56:11.258Z,7.29
2018-11-29T08:58:45.342Z,7.29
2018-11-29T09:01:19.229Z,7.23
2018-11-29T09:03:53.263Z,7.07
2018-11-29T09:06:27.249Z,7.12
2018-11-29T09:09:01.198Z,7.16
2018-11-29T09:11:35.087Z,7.05
2018-11-29T09:14:09.060Z,7.20
2018-11-29T09:16:43.030Z,7.26
2018-11-29T09:19:16.980Z,7.28
2018-11-29T09:21:50.901Z,7.25
2018-11-29T09:24:24.935Z,7.37
2018-11-29T09:26:58.788Z,7.47
2018-11-29T09:29:32.743Z,7.50
2018-11-29T09:32:06.607Z,7.43
2018-11-29T09:34:40.576Z,7.47
2018-11-29T09:37:20.832Z,7.47
2018-11-29T09:39:54.702Z,7.49
2018-11-29T09:42:28.588Z,7.50
2018-11-29T09:45:02.488Z,7.48
2018-11-29T09:47:36.434Z,7.44
2018-11-29T09:50:11.859Z,7.51
2018-11-29T09:52:45.704Z,7.57
2018-11-29T09:55:19.628Z,7.54
2018-11-29T09:57:53.486Z,7.60
2018-11-29T10:00:28.828Z,7.72
2018-11-29T10:03:06.304Z,7.74
2018-11-29T10:05:41.183Z,7.79
2018-11-29T10:08:17.313Z,7.85
2018-11-29T10:10:51.186Z,7.92
2018-11-29T10:13:25.047Z,7.73
2018-11-29T10:15:59.108Z,7.77
2018-11-29T10:18:32.986Z,7.70
2018-11-29T10:21:07.568Z,7.69
2018-11-29T10:23:41.432Z,7.74
2018-11-29T10:26:15.302Z,7.84
2018-11-29T10:28:49.373Z,7.83
2018-11-29T10:31:23.269Z,7.82
2018-11-29T10:33:57.108Z,7.94
2018-11-29T10:36:31.071Z,7.93
2018-11-29T10:39:06.407Z,7.98
2018-11-29T10:41:40.332Z,7.97
2018-11-29T10:44:14.195Z,7.95
2018-11-29T10:46:48.023Z,7.95
2018-11-29T10:49:21.847Z,7.89
2018-11-29T10:51:55.858Z,7.95
2018-11-29T10:54:29.700Z,7.99
2018-11-29T10:57:03.667Z,7.93
2018-11-29T10:59:37.507Z,7.85
2018-11-29T11:02:18.368Z,7.92
2018-11-29T11:04:52.205Z,7.92
2018-11-29T11:07:26.134Z,7.96
2018-11-29T11:10:00.040Z,7.84
2018-11-29T11:12:33.906Z,7.91
2018-11-29T11:15:07.806Z,8.03
2018-11-29T11:17:41.723Z,8.03
2018-11-29T11:20:15.606Z,8.07
2018-11-29T11:22:49.497Z,8.08
2018-11-29T11:25:23.419Z,8.11
2018-11-29T11:27:57.359Z,8.04
2018-11-29T11:30:31.230Z,8.18
2018-11-29T11:33:05.223Z,8.12
2018-11-29T11:35:39.110Z,8.11
2018-11-29T11:38:12.974Z,8.05
2018-11-29T11:40:46.803Z,8.12
2018-11-29T11:43:20.758Z,8.11
2018-11-29T11:45:54.598Z,8.10
2018-11-29T11:48:28.488Z,8.17
2018-11-29T11:51:02.336Z,8.22
2018-11-29T11:53:36.214Z,8.11
2018-11-29T11:56:10.151Z,8.16
2018-11-29T11:58:44.168Z,8.23
2018-11-29T12:01:18.104Z,8.24
2018-11-29T12:03:52.223Z,8.15
2018-11-29T12:06:26.078Z,8.23
2018-11-29T12:08:59.966Z,8.19
2018-11-29T12:11:33.798Z,8.21
2018-11-29T12:14:07.766Z,8.24
2018-11-29T12:16:41.584Z,8.31
2018-11-29T12:19:15.709Z,8.26
2018-11-29T12:21:49.668Z,8.31
2018-11-29T12:24:23.720Z,8.25
2018-11-29T12:26:57.540Z,8.27
2018-11-29T12:29:31.437Z,8.29
2018-11-29T12:32:05.322Z,8.27
2018-11-29T12:34:39.253Z,8.15
2018-11-29T12:37:13.107Z,8.27
2018-11-29T12:39:46.974Z,8.22
2018-11-29T12:42:20.818Z,8.27
2018-11-29T12:44:54.875Z,8.32
2018-11-29T12:47:28.724Z,8.34
2018-11-29T12:50:02.678Z,8.36
2018-11-29T12:52:36.508Z,8.40
2018-11-29T12:55:10.989Z,8.44
2018-11-29T12:57:45.061Z,8.31
2018-11-29T13:00:20.227Z,8.22
2018-11-29T13:02:55.864Z,8.22
2018-11-29T13:05:30.128Z,8.24
2018-11-29T13:08:04.020Z,8.29
2018-11-29T13:10:38.007Z,8.23
2018-11-29T13:13:11.894Z,8.26
2018-11-29T13:15:45.819Z,8.24
2018-11-29T13:18:19.715Z,8.21
2018-11-29T13:21:01.147Z,8.28
2018-11-29T13:23:35.242Z,8.28
2018-11-29T13:26:09.170Z,8.23
2018-11-29T13:28:43.020Z,8.18
2018-11-29T13:31:16.930Z,8.15
2018-11-29T13:33:50.763Z,8.07
2018-11-29T13:36:24.745Z,8.01
2018-11-29T13:38:58.615Z,8.01
2018-11-29T13:41:32.536Z,8.04
2018-11-29T13:44:06.637Z,7.93
2018-11-29T13:46:40.590Z,7.99
2018-11-29T13:49:14.452Z,8.10
2018-11-29T13:51:48.378Z,8.18
2018-11-29T13:54:22.222Z,7.89
2018-11-29T13:56:56.110Z,7.87
2018-11-29T13:59:29.981Z,8.00
2018-11-29T14:02:03.881Z,8.02
2018-11-29T14:04:37.724Z,8.09
2018-11-29T14:07:11.616Z,7.74
2018-11-29T14:09:45.558Z,7.79
2018-11-29T14:12:19.554Z,7.73
2018-11-29T14:14:53.396Z,7.81
2018-11-29T14:17:27.426Z,7.86
2018-11-29T14:20:01.311Z,7.90
2018-11-29T14:22:35.647Z,7.91
2018-11-29T14:25:12.915Z,7.91
2018-11-29T14:27:54.144Z,7.67
2018-11-29T14:30:29.005Z,7.70
2018-11-29T14:33:02.961Z,7.76
2018-11-29T14:35:36.845Z,7.73
2018-11-29T14:38:10.851Z,7.60
2018-11-29T14:40:44.685Z,7.70
2018-11-29T14:43:18.562Z,7.67
2018-11-29T14:45:52.484Z,7.68
2018-11-29T14:48:26.576Z,7.74
2018-11-29T14:51:02.538Z,7.77
2018-11-29T14:53:34.449Z,7.76
2018-11-29T14:56:08.308Z,7.68
2018-11-29T14:58:42.237Z,7.64
2018-11-29T15:01:16.093Z,7.62
2018-11-29T15:03:50.094Z,7.64
2018-11-29T15:06:23.988Z,7.62
2018-11-29T15:08:58.023Z,7.50
2018-11-29T15:11:32.010Z,7.46
2018-11-29T15:14:06.070Z,7.36
2018-11-29T15:16:39.961Z,7.36
2018-11-29T15:19:20.365Z,7.42
2018-11-29T15:21:54.230Z,7.40
2018-11-29T15:24:28.111Z,7.42
2018-11-29T15:27:01.990Z,7.38
2018-11-29T15:29:36.001Z,7.39
2018-11-29T15:32:09.874Z,7.25
2018-11-29T15:34:43.899Z,7.29
2018-11-29T15:37:17.707Z,7.26
2018-11-29T15:39:51.650Z,7.26
2018-11-29T15:42:25.480Z,7.27
2018-11-29T15:44:59.547Z,7.30
2018-11-29T15:47:33.427Z,7.26
2018-11-29T15:50:10.119Z,7.13
2018-11-29T15:52:44.030Z,7.21
2018-11-29T15:55:18.980Z,7.18
2018-11-29T15:57:53.588Z,7.12
2018-11-29T16:00:29.342Z,7.12
2018-11-29T16:03:05.291Z,7.16
2018-11-29T16:05:41.241Z,7.11
2018-11-29T16:08:13.126Z,7.04
2018-11-29T16:10:47.152Z,7.03
2018-11-29T16:13:21.024Z,7.03
2018-11-29T16:15:54.907Z,6.99
2018-11-29T16:18:28.818Z,6.97
2018-11-29T16:21:02.752Z,7.00
2018-11-29T16:23:36.593Z,7.03
2018-11-29T16:26:10.516Z,7.01
2018-11-29T16:28:44.401Z,7.01
2018-11-29T16:31:18.345Z,6.94
2018-11-29T16:33:52.217Z,6.86
2018-11-29T16:36:26.132Z,6.96
2018-11-29T16:38:59.959Z,6.98
2018-11-29T16:41:33.862Z,6.91
2018-11-29T16:44:07.700Z,6.96
2018-11-29T16:46:41.878Z,6.98
2018-11-29T16:49:15.746Z,6.88
2018-11-29T16:51:49.639Z,6.95
2018-11-29T16:54:23.495Z,6.99
2018-11-29T16:56:57.494Z,7.01
2018-11-29T16:59:31.418Z,7.03
2018-11-29T17:02:05.309Z,7.06
2018-11-29T17:04:39.151Z,7.01
2018-11-29T17:07:13.111Z,7.03
2018-11-29T17:09:46.961Z,7.08
2018-11-29T17:12:21.695Z,7.14
2018-11-29T17:14:55.563Z,7.13
2018-11-29T17:17:29.459Z,7.21
2018-11-29T17:20:03.381Z,7.19
2018-11-29T17:22:37.414Z,7.16
2018-11-29T17:25:13.124Z,7.13
2018-11-29T17:27:47.001Z,7.24
2018-11-29T17:30:23.630Z,7.18
2018-11-29T17:32:58.499Z,7.17
2018-11-29T17:35:32.357Z,7.21
2018-11-29T17:38:06.517Z,7.09
2018-11-29T17:40:40.526Z,7.23
2018-11-29T17:43:14.505Z,7.26
2018-11-29T17:45:48.454Z,7.29
2018-11-29T17:48:22.438Z,7.38
2018-11-29T17:50:56.300Z,7.40
2018-11-29T17:53:30.225Z,7.47
2018-11-29T17:56:04.105Z,7.17
2018-11-29T17:58:37.961Z,7.32
2018-11-29T18:01:11.785Z,7.46
2018-11-29T18:03:45.700Z,7.47
2018-11-29T18:06:19.604Z,7.59
2018-11-29T18:08:53.817Z,7.63
2018-11-29T18:11:27.650Z,7.65
2018-11-29T18:14:01.513Z,7.60
2018-11-29T18:16:35.398Z,7.65
2018-11-29T18:19:13.121Z,7.68
2018-11-29T18:21:43.237Z,7.55
2018-11-29T18:24:17.170Z,7.71
2018-11-29T18:26:51.069Z,7.72
2018-11-29T18:29:25.027Z,7.62
2018-11-29T18:31:58.871Z,7.59
2018-11-29T18:34:32.796Z,7.68
2018-11-29T18:37:07.038Z,7.69
2018-11-29T18:39:41.035Z,7.66
2018-11-29T18:42:14.904Z,7.72
2018-11-29T18:44:49.834Z,7.72
2018-11-29T18:47:23.785Z,7.71
2018-11-29T18:49:57.749Z,7.67
2018-11-29T18:52:31.692Z,7.70
2018-11-29T18:55:05.591Z,7.71
2018-11-29T18:57:39.541Z,7.68
2018-11-29T19:00:14.862Z,7.72
2018-11-29T19:02:48.740Z,7.74
2018-11-29T19:05:22.680Z,7.81
2018-11-29T19:07:56.558Z,7.87
2018-11-29T19:10:30.805Z,7.90
2018-11-29T19:13:07.660Z,7.83
2018-11-29T19:15:41.762Z,7.85
2018-11-29T19:18:15.610Z,7.97
2018-11-29T19:20:49.685Z,7.85
2018-11-29T19:23:23.487Z,7.89
2018-11-29T19:25:57.405Z,7.92
2018-11-29T19:28:31.279Z,8.00
2018-11-29T19:31:05.167Z,8.02
2018-11-29T19:33:39.697Z,8.01
2018-11-29T19:36:13.649Z,8.03
2018-11-29T19:38:47.500Z,8.11
2018-11-29T19:41:21.490Z,8.09
2018-11-29T19:43:55.417Z,8.08
2018-11-29T19:46:29.408Z,8.04
2018-11-29T19:49:03.221Z,8.09
2018-11-29T19:51:38.109Z,8.04
2018-11-29T19:54:12.034Z,8.08
2018-11-29T19:56:45.996Z,8.10
2018-11-29T19:59:19.853Z,7.97
2018-11-29T20:01:53.854Z,8.06
2018-11-29T20:04:28.438Z,7.98
2018-11-29T20:07:02.651Z,7.88
2018-11-29T20:09:36.499Z,7.89
2018-11-29T20:12:10.444Z,7.81
2018-11-29T20:14:44.342Z,7.85
2018-11-29T20:17:18.261Z,7.80
2018-11-29T20:19:52.232Z,7.83
2018-11-29T20:22:26.337Z,7.82
2018-11-29T20:25:00.210Z,7.86
2018-11-29T20:27:34.081Z,7.82
2018-11-29T20:30:11.040Z,7.85
2018-11-29T20:32:45.162Z,7.81
2018-11-29T20:35:19.589Z,7.78
2018-11-29T20:37:54.414Z,7.85
2018-11-29T20:40:29.630Z,7.83
2018-11-29T20:43:03.636Z,7.82
2018-11-29T20:45:44.684Z,7.71
2018-11-29T20:48:21.058Z,7.71
2018-11-29T20:50:55.951Z,7.81
2018-11-29T20:53:36.348Z,7.85
2018-11-29T20:56:12.779Z,7.93
2018-11-29T20:58:46.673Z,7.78
2018-11-29T21:01:20.521Z,7.83
2018-11-29T21:03:54.401Z,7.85
2018-11-29T21:06:28.271Z,7.98
2018-11-29T21:09:02.333Z,8.12
2018-11-29T21:11:36.253Z,8.09
2018-11-29T21:14:10.105Z,8.13
2018-11-29T21:16:43.936Z,8.23
2018-11-29T21:19:17.805Z,8.27
2018-11-29T21:21:51.619Z,8.27
2018-11-29T21:24:25.495Z,8.33
2018-11-29T21:26:59.325Z,8.35
2018-11-29T21:29:33.158Z,8.25
2018-11-29T21:32:07.028Z,8.34
2018-11-29T21:34:40.917Z,8.48
2018-11-29T21:37:15.249Z,8.39
2018-11-29T21:39:49.599Z,8.54
2018-11-29T21:42:23.801Z,8.57
2018-11-29T21:44:59.176Z,8.48
2018-11-29T21:47:33.683Z,8.63
2018-11-29T21:50:09.068Z,8.64
2018-11-29T21:52:43.633Z,8.59
2018-11-29T21:55:18.133Z,8.64
2018-11-29T21:57:52.722Z,8.55
2018-11-29T22:00:27.937Z,8.54
2018-11-29T22:03:05.637Z,8.56
2018-11-29T22:05:39.685Z,8.51
2018-11-29T22:08:13.490Z,8.46
2018-11-29T22:10:47.328Z,8.40
2018-11-29T22:13:21.264Z,8.43
2018-11-29T22:15:55.179Z,8.35
2018-11-29T22:18:29.037Z,8.33
2018-11-29T22:21:04.820Z,8.31
2018-11-29T22:23:39.782Z,8.23
2018-11-29T22:26:15.113Z,8.20
2018-11-29T22:28:48.965Z,8.17
2018-11-29T22:31:22.931Z,8.20
2018-11-29T22:33:56.893Z,8.04
2018-11-29T22:36:30.772Z,8.20
2018-11-29T22:39:05.826Z,8.22
2018-11-29T22:41:39.699Z,8.25
2018-11-29T22:44:13.477Z,8.22
2018-11-29T22:46:47.334Z,8.11
2018-11-29T22:49:21.157Z,8.19
2018-11-29T22:51:55.104Z,8.11
2018-11-29T22:54:28.929Z,8.02
2018-11-29T22:57:03.007Z,8.07
2018-11-29T22:59:36.812Z,8.04
2018-11-29T23:02:10.785Z,8.07
2018-11-29T23:04:44.745Z,8.03
2018-11-29T23:07:18.575Z,7.97
2018-11-29T23:09:54.950Z,7.96
2018-11-29T23:12:29.095Z,8.00
2018-11-29T23:15:03.028Z,8.07
2018-11-29T23:17:36.921Z,8.09
2018-11-29T23:20:11.994Z,8.11
2018-11-29T23:22:45.899Z,8.08
2018-11-29T23:25:20.177Z,8.05
2018-11-29T23:27:55.028Z,8.08
2018-11-29T23:30:30.485Z,8.06
2018-11-29T23:33:04.397Z,8.03
2018-11-29T23:35:38.326Z,7.98
2018-11-29T23:38:12.370Z,8.03
2018-11-29T23:40:46.362Z,8.04
2018-11-29T23:43:20.524Z,8.03
2018-11-29T23:45:54.640Z,8.03
2018-11-29T23:48:28.790Z,8.09
2018-11-29T23:51:03.039Z,8.09
2018-11-29T23:53:37.132Z,8.11
2018-11-29T23:56:11.160Z,8.07
2018-11-29T23:58:45.258Z,8.09
